sensor_id;sensor_type;location;lat;lon;timestamp;P1;durP1;ratioP1;P2;durP2;ratioP2
14316;SDS011;7242;50.858;6.586;2022-10-14T00:01:43;8.20;;;6.47;;
14316;SDS011;7242;50.858;6.586;2022-10-14T00:04:45;9.30;;;7.23;;
14316;SDS011;7242;50.858;6.586;2022-10-14T00:07:45;8.20;;;6.70;;
14316;SDS011;7242;50.858;6.586;2022-10-14T00:10:46;7.57;;;6.87;;
14316;SDS011;7242;50.858;6.586;2022-10-14T00:13:47;8.50;;;6.80;;
14316;SDS011;7242;50.858;6.586;2022-10-14T00:16:51;9.10;;;7.07;;
14316;SDS011;7242;50.858;6.586;2022-10-14T00:19:53;7.47;;;6.47;;
14316;SDS011;7242;50.858;6.586;2022-10-14T00:22:54;9.40;;;7.20;;
14316;SDS011;7242;50.858;6.586;2022-10-14T00:25:56;9.20;;;6.23;;
14316;SDS011;7242;50.858;6.586;2022-10-14T00:29:04;7.97;;;6.90;;
14316;SDS011;7242;50.858;6.586;2022-10-14T00:32:08;7.00;;;6.30;;
14316;SDS011;7242;50.858;6.586;2022-10-14T00:35:09;8.47;;;7.20;;
14316;SDS011;7242;50.858;6.586;2022-10-14T00:38:10;8.07;;;7.37;;
14316;SDS011;7242;50.858;6.586;2022-10-14T00:41:11;9.00;;;7.80;;
14316;SDS011;7242;50.858;6.586;2022-10-14T00:47:20;8.83;;;7.87;;
14316;SDS011;7242;50.858;6.586;2022-10-14T00:50:21;8.70;;;7.80;;
14316;SDS011;7242;50.858;6.586;2022-10-14T00:53:25;8.83;;;7.93;;
14316;SDS011;7242;50.858;6.586;2022-10-14T00:56:28;8.93;;;8.20;;
14316;SDS011;7242;50.858;6.586;2022-10-14T00:59:30;8.83;;;7.93;;
14316;SDS011;7242;50.858;6.586;2022-10-14T01:02:32;9.07;;;7.80;;
14316;SDS011;7242;50.858;6.586;2022-10-14T01:05:37;9.23;;;8.33;;
14316;SDS011;7242;50.858;6.586;2022-10-14T01:08:45;10.03;;;8.13;;
14316;SDS011;7242;50.858;6.586;2022-10-14T01:15:32;8.63;;;7.70;;
14316;SDS011;7242;50.858;6.586;2022-10-14T01:21:51;8.67;;;7.77;;
14316;SDS011;7242;50.858;6.586;2022-10-14T01:25:24;8.37;;;7.50;;
14316;SDS011;7242;50.858;6.586;2022-10-14T01:31:49;8.77;;;7.87;;
14316;SDS011;7242;50.858;6.586;2022-10-14T01:38:32;8.30;;;7.50;;
14316;SDS011;7242;50.858;6.586;2022-10-14T01:41:38;8.80;;;8.00;;
14316;SDS011;7242;50.858;6.586;2022-10-14T01:44:44;8.03;;;7.33;;
14316;SDS011;7242;50.858;6.586;2022-10-14T01:47:50;8.53;;;7.70;;
14316;SDS011;7242;50.858;6.586;2022-10-14T01:50:53;9.03;;;7.77;;
14316;SDS011;7242;50.858;6.586;2022-10-14T01:54:01;8.10;;;7.30;;
14316;SDS011;7242;50.858;6.586;2022-10-14T01:57:06;7.80;;;7.00;;
14316;SDS011;7242;50.858;6.586;2022-10-14T02:00:13;7.77;;;6.97;;
14316;SDS011;7242;50.858;6.586;2022-10-14T02:03:14;6.83;;;6.23;;
14316;SDS011;7242;50.858;6.586;2022-10-14T02:16:15;8.50;;;6.07;;
14316;SDS011;7242;50.858;6.586;2022-10-14T02:19:38;6.17;;;5.53;;
14316;SDS011;7242;50.858;6.586;2022-10-14T02:22:50;5.53;;;5.03;;
14316;SDS011;7242;50.858;6.586;2022-10-14T02:25:59;5.33;;;4.83;;
14316;SDS011;7242;50.858;6.586;2022-10-14T02:29:02;6.07;;;5.53;;
14316;SDS011;7242;50.858;6.586;2022-10-14T02:32:04;5.73;;;5.17;;
14316;SDS011;7242;50.858;6.586;2022-10-14T02:35:07;5.57;;;5.03;;
14316;SDS011;7242;50.858;6.586;2022-10-14T02:38:10;5.40;;;4.90;;
14316;SDS011;7242;50.858;6.586;2022-10-14T02:41:13;4.93;;;4.23;;
14316;SDS011;7242;50.858;6.586;2022-10-14T02:44:17;5.30;;;4.60;;
14316;SDS011;7242;50.858;6.586;2022-10-14T02:47:20;4.47;;;4.17;;
14316;SDS011;7242;50.858;6.586;2022-10-14T02:50:22;5.37;;;4.73;;
14316;SDS011;7242;50.858;6.586;2022-10-14T02:53:25;4.50;;;4.10;;
14316;SDS011;7242;50.858;6.586;2022-10-14T02:56:26;3.90;;;3.50;;
14316;SDS011;7242;50.858;6.586;2022-10-14T02:59:27;3.33;;;3.13;;
14316;SDS011;7242;50.858;6.586;2022-10-14T03:02:30;3.20;;;2.90;;
14316;SDS011;7242;50.858;6.586;2022-10-14T03:05:33;3.63;;;2.50;;
14316;SDS011;7242;50.858;6.586;2022-10-14T03:08:35;2.50;;;2.30;;
14316;SDS011;7242;50.858;6.586;2022-10-14T03:11:38;2.50;;;2.30;;
14316;SDS011;7242;50.858;6.586;2022-10-14T03:14:43;2.07;;;1.97;;
14316;SDS011;7242;50.858;6.586;2022-10-14T03:17:48;2.47;;;1.90;;
14316;SDS011;7242;50.858;6.586;2022-10-14T03:20:53;1.90;;;1.80;;
14316;SDS011;7242;50.858;6.586;2022-10-14T03:24:01;2.60;;;1.70;;
14316;SDS011;7242;50.858;6.586;2022-10-14T03:27:07;2.13;;;1.77;;
14316;SDS011;7242;50.858;6.586;2022-10-14T03:30:09;2.80;;;1.70;;
14316;SDS011;7242;50.858;6.586;2022-10-14T03:33:18;2.10;;;1.70;;
14316;SDS011;7242;50.858;6.586;2022-10-14T03:36:30;1.90;;;1.80;;
14316;SDS011;7242;50.858;6.586;2022-10-14T03:39:31;1.73;;;1.63;;
14316;SDS011;7242;50.858;6.586;2022-10-14T03:42:37;2.10;;;1.67;;
14316;SDS011;7242;50.858;6.586;2022-10-14T03:45:39;2.37;;;1.60;;
14316;SDS011;7242;50.858;6.586;2022-10-14T03:48:43;1.70;;;1.60;;
14316;SDS011;7242;50.858;6.586;2022-10-14T03:51:45;1.87;;;1.77;;
14316;SDS011;7242;50.858;6.586;2022-10-14T03:54:53;1.90;;;1.80;;
14316;SDS011;7242;50.858;6.586;2022-10-14T03:57:55;1.87;;;1.77;;
14316;SDS011;7242;50.858;6.586;2022-10-14T04:00:56;1.60;;;1.50;;
14316;SDS011;7242;50.858;6.586;2022-10-14T04:04:20;2.13;;;1.97;;
14316;SDS011;7242;50.858;6.586;2022-10-14T04:07:21;1.70;;;1.60;;
14316;SDS011;7242;50.858;6.586;2022-10-14T04:10:28;2.00;;;1.90;;
14316;SDS011;7242;50.858;6.586;2022-10-14T04:13:29;2.07;;;1.87;;
14316;SDS011;7242;50.858;6.586;2022-10-14T04:16:31;2.00;;;1.90;;
14316;SDS011;7242;50.858;6.586;2022-10-14T04:19:36;2.17;;;2.00;;
14316;SDS011;7242;50.858;6.586;2022-10-14T04:22:38;1.80;;;1.70;;
14316;SDS011;7242;50.858;6.586;2022-10-14T04:25:40;1.80;;;1.70;;
14316;SDS011;7242;50.858;6.586;2022-10-14T04:28:41;1.67;;;1.57;;
14316;SDS011;7242;50.858;6.586;2022-10-14T04:31:47;1.80;;;1.70;;
14316;SDS011;7242;50.858;6.586;2022-10-14T04:34:50;2.03;;;1.50;;
14316;SDS011;7242;50.858;6.586;2022-10-14T04:37:54;1.90;;;1.80;;
14316;SDS011;7242;50.858;6.586;2022-10-14T04:40:59;1.70;;;1.60;;
14316;SDS011;7242;50.858;6.586;2022-10-14T04:44:01;1.73;;;1.63;;
14316;SDS011;7242;50.858;6.586;2022-10-14T04:47:07;1.50;;;1.40;;
14316;SDS011;7242;50.858;6.586;2022-10-14T04:50:09;2.20;;;1.40;;
14316;SDS011;7242;50.858;6.586;2022-10-14T04:53:30;1.50;;;1.40;;
14316;SDS011;7242;50.858;6.586;2022-10-14T04:57:04;1.30;;;1.20;;
14316;SDS011;7242;50.858;6.586;2022-10-14T05:00:05;1.77;;;1.20;;
14316;SDS011;7242;50.858;6.586;2022-10-14T05:03:21;1.40;;;1.30;;
14316;SDS011;7242;50.858;6.586;2022-10-14T05:06:23;1.90;;;1.50;;
14316;SDS011;7242;50.858;6.586;2022-10-14T05:09:26;1.57;;;1.40;;
14316;SDS011;7242;50.858;6.586;2022-10-14T05:12:28;1.43;;;1.33;;
14316;SDS011;7242;50.858;6.586;2022-10-14T05:15:33;1.40;;;1.30;;
14316;SDS011;7242;50.858;6.586;2022-10-14T05:18:42;1.70;;;1.40;;
14316;SDS011;7242;50.858;6.586;2022-10-14T05:21:45;1.50;;;1.40;;
14316;SDS011;7242;50.858;6.586;2022-10-14T05:24:49;1.20;;;1.13;;
14316;SDS011;7242;50.858;6.586;2022-10-14T05:27:51;1.90;;;1.40;;
14316;SDS011;7242;50.858;6.586;2022-10-14T05:30:53;1.40;;;1.30;;
14316;SDS011;7242;50.858;6.586;2022-10-14T05:33:56;1.30;;;1.20;;
14316;SDS011;7242;50.858;6.586;2022-10-14T05:36:57;1.60;;;1.50;;
14316;SDS011;7242;50.858;6.586;2022-10-14T05:40:00;1.50;;;1.37;;
14316;SDS011;7242;50.858;6.586;2022-10-14T05:43:02;1.40;;;1.30;;
14316;SDS011;7242;50.858;6.586;2022-10-14T05:46:05;1.40;;;1.30;;
14316;SDS011;7242;50.858;6.586;2022-10-14T05:49:11;1.30;;;1.20;;
14316;SDS011;7242;50.858;6.586;2022-10-14T05:52:12;1.40;;;1.30;;
14316;SDS011;7242;50.858;6.586;2022-10-14T05:55:13;1.50;;;1.40;;
14316;SDS011;7242;50.858;6.586;2022-10-14T05:58:16;1.30;;;1.20;;
14316;SDS011;7242;50.858;6.586;2022-10-14T06:01:18;1.60;;;1.50;;
14316;SDS011;7242;50.858;6.586;2022-10-14T06:04:20;2.33;;;1.40;;
14316;SDS011;7242;50.858;6.586;2022-10-14T06:07:21;1.70;;;1.50;;
14316;SDS011;7242;50.858;6.586;2022-10-14T06:10:22;1.70;;;1.60;;
14316;SDS011;7242;50.858;6.586;2022-10-14T06:13:23;1.70;;;1.60;;
14316;SDS011;7242;50.858;6.586;2022-10-14T06:16:25;1.77;;;1.60;;
14316;SDS011;7242;50.858;6.586;2022-10-14T06:19:27;1.67;;;1.57;;
14316;SDS011;7242;50.858;6.586;2022-10-14T06:22:30;2.10;;;1.93;;
14316;SDS011;7242;50.858;6.586;2022-10-14T06:25:31;2.33;;;2.13;;
14316;SDS011;7242;50.858;6.586;2022-10-14T06:28:32;2.50;;;2.30;;
14316;SDS011;7242;50.858;6.586;2022-10-14T06:31:33;2.50;;;2.30;;
14316;SDS011;7242;50.858;6.586;2022-10-14T06:34:34;2.70;;;2.50;;
14316;SDS011;7242;50.858;6.586;2022-10-14T06:37:35;2.60;;;2.40;;
14316;SDS011;7242;50.858;6.586;2022-10-14T06:40:36;2.87;;;2.67;;
14316;SDS011;7242;50.858;6.586;2022-10-14T06:43:37;3.07;;;2.83;;
14316;SDS011;7242;50.858;6.586;2022-10-14T06:46:38;3.70;;;3.33;;
14316;SDS011;7242;50.858;6.586;2022-10-14T06:49:39;4.37;;;3.47;;
14316;SDS011;7242;50.858;6.586;2022-10-14T06:52:40;4.63;;;3.70;;
14316;SDS011;7242;50.858;6.586;2022-10-14T06:55:41;5.07;;;3.60;;
14316;SDS011;7242;50.858;6.586;2022-10-14T06:58:43;5.47;;;3.83;;
14316;SDS011;7242;50.858;6.586;2022-10-14T07:01:44;8.57;;;4.37;;
14316;SDS011;7242;50.858;6.586;2022-10-14T07:04:45;6.30;;;3.70;;
14316;SDS011;7242;50.858;6.586;2022-10-14T07:07:46;4.77;;;3.63;;
14316;SDS011;7242;50.858;6.586;2022-10-14T07:10:46;4.60;;;3.80;;
14316;SDS011;7242;50.858;6.586;2022-10-14T07:13:48;4.87;;;3.60;;
14316;SDS011;7242;50.858;6.586;2022-10-14T07:16:49;6.90;;;4.00;;
14316;SDS011;7242;50.858;6.586;2022-10-14T07:19:50;4.43;;;4.00;;
14316;SDS011;7242;50.858;6.586;2022-10-14T07:22:53;5.73;;;3.83;;
14316;SDS011;7242;50.858;6.586;2022-10-14T07:25:56;4.13;;;3.73;;
14316;SDS011;7242;50.858;6.586;2022-10-14T07:28:58;6.20;;;4.10;;
14316;SDS011;7242;50.858;6.586;2022-10-14T07:31:59;3.47;;;3.20;;
14316;SDS011;7242;50.858;6.586;2022-10-14T07:35:00;3.50;;;3.20;;
14316;SDS011;7242;50.858;6.586;2022-10-14T07:38:01;4.27;;;3.40;;
14316;SDS011;7242;50.858;6.586;2022-10-14T07:41:06;6.17;;;4.17;;
14316;SDS011;7242;50.858;6.586;2022-10-14T07:44:18;9.20;;;4.10;;
14316;SDS011;7242;50.858;6.586;2022-10-14T07:47:20;7.83;;;3.63;;
14316;SDS011;7242;50.858;6.586;2022-10-14T07:50:21;7.80;;;4.00;;
14316;SDS011;7242;50.858;6.586;2022-10-14T07:53:23;5.50;;;3.27;;
14316;SDS011;7242;50.858;6.586;2022-10-14T07:56:25;11.73;;;4.87;;
14316;SDS011;7242;50.858;6.586;2022-10-14T07:59:26;13.67;;;4.60;;
14316;SDS011;7242;50.858;6.586;2022-10-14T08:02:27;7.73;;;3.67;;
14316;SDS011;7242;50.858;6.586;2022-10-14T08:05:28;3.90;;;3.13;;
14316;SDS011;7242;50.858;6.586;2022-10-14T08:08:30;3.47;;;2.90;;
14316;SDS011;7242;50.858;6.586;2022-10-14T08:11:31;2.93;;;2.63;;
14316;SDS011;7242;50.858;6.586;2022-10-14T08:14:33;3.57;;;2.50;;
14316;SDS011;7242;50.858;6.586;2022-10-14T08:17:33;2.63;;;2.43;;
14316;SDS011;7242;50.858;6.586;2022-10-14T08:20:35;3.07;;;2.60;;
14316;SDS011;7242;50.858;6.586;2022-10-14T08:23:36;2.63;;;2.43;;
14316;SDS011;7242;50.858;6.586;2022-10-14T08:26:38;2.80;;;2.60;;
14316;SDS011;7242;50.858;6.586;2022-10-14T08:29:47;3.00;;;2.70;;
14316;SDS011;7242;50.858;6.586;2022-10-14T08:32:48;3.67;;;3.20;;
14316;SDS011;7242;50.858;6.586;2022-10-14T08:35:49;3.40;;;3.10;;
14316;SDS011;7242;50.858;6.586;2022-10-14T08:38:50;3.27;;;2.97;;
14316;SDS011;7242;50.858;6.586;2022-10-14T08:42:13;3.77;;;3.43;;
14316;SDS011;7242;50.858;6.586;2022-10-14T08:48:34;3.70;;;3.40;;
14316;SDS011;7242;50.858;6.586;2022-10-14T08:51:36;3.73;;;3.33;;
14316;SDS011;7242;50.858;6.586;2022-10-14T08:54:40;3.93;;;3.40;;
14316;SDS011;7242;50.858;6.586;2022-10-14T08:57:49;4.90;;;3.60;;
14316;SDS011;7242;50.858;6.586;2022-10-14T09:00:56;3.77;;;3.47;;
14316;SDS011;7242;50.858;6.586;2022-10-14T09:04:02;3.83;;;3.40;;
14316;SDS011;7242;50.858;6.586;2022-10-14T09:07:08;4.17;;;3.77;;
14316;SDS011;7242;50.858;6.586;2022-10-14T09:13:47;4.30;;;3.90;;
14316;SDS011;7242;50.858;6.586;2022-10-14T09:16:51;4.30;;;3.90;;
14316;SDS011;7242;50.858;6.586;2022-10-14T09:20:12;5.40;;;4.30;;
14316;SDS011;7242;50.858;6.586;2022-10-14T09:23:25;6.73;;;4.53;;
14316;SDS011;7242;50.858;6.586;2022-10-14T09:26:29;6.07;;;4.70;;
14316;SDS011;7242;50.858;6.586;2022-10-14T09:29:41;5.80;;;3.80;;
14316;SDS011;7242;50.858;6.586;2022-10-14T09:32:49;5.53;;;4.40;;
14316;SDS011;7242;50.858;6.586;2022-10-14T09:35:52;4.13;;;3.73;;
14316;SDS011;7242;50.858;6.586;2022-10-14T09:38:54;4.63;;;4.13;;
14316;SDS011;7242;50.858;6.586;2022-10-14T09:41:55;5.10;;;3.83;;
14316;SDS011;7242;50.858;6.586;2022-10-14T09:45:08;4.97;;;4.47;;
14316;SDS011;7242;50.858;6.586;2022-10-14T09:49:02;6.60;;;4.70;;
14316;SDS011;7242;50.858;6.586;2022-10-14T09:51:48;5.27;;;4.20;;
14316;SDS011;7242;50.858;6.586;2022-10-14T09:54:54;4.70;;;4.27;;
14316;SDS011;7242;50.858;6.586;2022-10-14T09:58:00;5.70;;;4.43;;
14316;SDS011;7242;50.858;6.586;2022-10-14T10:01:05;4.60;;;4.10;;
14316;SDS011;7242;50.858;6.586;2022-10-14T10:07:35;5.97;;;4.40;;
14316;SDS011;7242;50.858;6.586;2022-10-14T10:10:37;4.67;;;4.20;;
14316;SDS011;7242;50.858;6.586;2022-10-14T10:16:39;6.07;;;4.60;;
14316;SDS011;7242;50.858;6.586;2022-10-14T10:19:41;4.83;;;4.03;;
14316;SDS011;7242;50.858;6.586;2022-10-14T10:22:43;6.17;;;4.60;;
14316;SDS011;7242;50.858;6.586;2022-10-14T10:25:45;4.87;;;4.47;;
14316;SDS011;7242;50.858;6.586;2022-10-14T10:28:47;4.97;;;4.33;;
14316;SDS011;7242;50.858;6.586;2022-10-14T10:38:17;5.97;;;4.43;;
14316;SDS011;7242;50.858;6.586;2022-10-14T10:41:41;7.33;;;4.70;;
14316;SDS011;7242;50.858;6.586;2022-10-14T10:54:33;5.27;;;4.27;;
14316;SDS011;7242;50.858;6.586;2022-10-14T11:01:34;4.60;;;4.20;;
14316;SDS011;7242;50.858;6.586;2022-10-14T11:04:14;5.33;;;4.00;;
14316;SDS011;7242;50.858;6.586;2022-10-14T11:18:08;5.23;;;3.37;;
14316;SDS011;7242;50.858;6.586;2022-10-14T11:21:31;4.30;;;3.30;;
14316;SDS011;7242;50.858;6.586;2022-10-14T11:25:00;4.00;;;3.30;;
14316;SDS011;7242;50.858;6.586;2022-10-14T11:28:27;3.00;;;2.80;;
14316;SDS011;7242;50.858;6.586;2022-10-14T11:38:31;3.20;;;2.90;;
14316;SDS011;7242;50.858;6.586;2022-10-14T11:45:26;5.33;;;3.30;;
14316;SDS011;7242;50.858;6.586;2022-10-14T11:51:38;3.50;;;3.20;;
14316;SDS011;7242;50.858;6.586;2022-10-14T11:54:46;3.90;;;2.80;;
14316;SDS011;7242;50.858;6.586;2022-10-14T11:57:52;2.40;;;2.20;;
14316;SDS011;7242;50.858;6.586;2022-10-14T12:01:10;2.37;;;2.17;;
14316;SDS011;7242;50.858;6.586;2022-10-14T12:04:15;1.80;;;1.70;;
14316;SDS011;7242;50.858;6.586;2022-10-14T12:07:26;1.43;;;1.33;;
14316;SDS011;7242;50.858;6.586;2022-10-14T12:10:33;3.03;;;1.60;;
14316;SDS011;7242;50.858;6.586;2022-10-14T12:13:41;1.33;;;1.20;;
14316;SDS011;7242;50.858;6.586;2022-10-14T12:16:51;1.30;;;1.20;;
14316;SDS011;7242;50.858;6.586;2022-10-14T12:19:54;1.30;;;1.20;;
14316;SDS011;7242;50.858;6.586;2022-10-14T12:22:56;1.60;;;1.50;;
14316;SDS011;7242;50.858;6.586;2022-10-14T12:29:01;1.70;;;1.60;;
14316;SDS011;7242;50.858;6.586;2022-10-14T12:35:13;1.80;;;1.70;;
14316;SDS011;7242;50.858;6.586;2022-10-14T12:38:44;1.63;;;1.50;;
14316;SDS011;7242;50.858;6.586;2022-10-14T12:42:17;1.87;;;1.70;;
14316;SDS011;7242;50.858;6.586;2022-10-14T12:45:23;3.23;;;1.83;;
14316;SDS011;7242;50.858;6.586;2022-10-14T12:48:26;2.93;;;1.90;;
14316;SDS011;7242;50.858;6.586;2022-10-14T12:51:31;2.97;;;2.63;;
14316;SDS011;7242;50.858;6.586;2022-10-14T12:54:33;2.53;;;2.10;;
14316;SDS011;7242;50.858;6.586;2022-10-14T12:57:36;2.57;;;2.20;;
14316;SDS011;7242;50.858;6.586;2022-10-14T13:00:37;2.57;;;2.10;;
14316;SDS011;7242;50.858;6.586;2022-10-14T13:03:41;3.53;;;3.20;;
14316;SDS011;7242;50.858;6.586;2022-10-14T13:06:52;3.00;;;2.70;;
14316;SDS011;7242;50.858;6.586;2022-10-14T13:11:19;3.00;;;2.80;;
14316;SDS011;7242;50.858;6.586;2022-10-14T13:13:47;2.73;;;2.27;;
14316;SDS011;7242;50.858;6.586;2022-10-14T13:19:53;2.20;;;2.10;;
14316;SDS011;7242;50.858;6.586;2022-10-14T13:22:54;2.50;;;2.30;;
14316;SDS011;7242;50.858;6.586;2022-10-14T13:26:22;2.43;;;2.23;;
14316;SDS011;7242;50.858;6.586;2022-10-14T13:29:59;3.37;;;2.77;;
14316;SDS011;7242;50.858;6.586;2022-10-14T13:33:20;2.17;;;2.07;;
14316;SDS011;7242;50.858;6.586;2022-10-14T13:36:52;2.30;;;2.10;;
14316;SDS011;7242;50.858;6.586;2022-10-14T13:40:06;3.10;;;2.00;;
14316;SDS011;7242;50.858;6.586;2022-10-14T13:43:37;3.00;;;1.83;;
14316;SDS011;7242;50.858;6.586;2022-10-14T13:46:41;1.80;;;1.70;;
14316;SDS011;7242;50.858;6.586;2022-10-14T13:49:46;1.80;;;1.57;;
14316;SDS011;7242;50.858;6.586;2022-10-14T13:52:54;1.30;;;1.20;;
14316;SDS011;7242;50.858;6.586;2022-10-14T13:56:02;1.17;;;1.10;;
14316;SDS011;7242;50.858;6.586;2022-10-14T13:59:15;21.90;;;2.80;;
14316;SDS011;7242;50.858;6.586;2022-10-14T14:02:23;10.73;;;1.73;;
14316;SDS011;7242;50.858;6.586;2022-10-14T14:05:25;1.93;;;0.90;;
14316;SDS011;7242;50.858;6.586;2022-10-14T14:08:31;3.87;;;1.20;;
14316;SDS011;7242;50.858;6.586;2022-10-14T14:11:34;4.03;;;1.30;;
14316;SDS011;7242;50.858;6.586;2022-10-14T14:14:37;0.70;;;0.70;;
14316;SDS011;7242;50.858;6.586;2022-10-14T14:17:40;1.43;;;0.70;;
14316;SDS011;7242;50.858;6.586;2022-10-14T14:20:53;0.87;;;0.80;;
14316;SDS011;7242;50.858;6.586;2022-10-14T14:23:58;2.03;;;0.90;;
14316;SDS011;7242;50.858;6.586;2022-10-14T14:27:01;4.27;;;1.47;;
14316;SDS011;7242;50.858;6.586;2022-10-14T14:30:02;1.67;;;0.97;;
14316;SDS011;7242;50.858;6.586;2022-10-14T14:33:27;0.80;;;0.80;;
14316;SDS011;7242;50.858;6.586;2022-10-14T14:36:30;2.07;;;1.87;;
14316;SDS011;7242;50.858;6.586;2022-10-14T14:39:31;2.97;;;1.40;;
14316;SDS011;7242;50.858;6.586;2022-10-14T14:42:36;2.30;;;1.00;;
14316;SDS011;7242;50.858;6.586;2022-10-14T14:45:40;2.70;;;0.70;;
14316;SDS011;7242;50.858;6.586;2022-10-14T14:48:44;1.63;;;0.80;;
14316;SDS011;7242;50.858;6.586;2022-10-14T14:51:51;1.20;;;0.87;;
14316;SDS011;7242;50.858;6.586;2022-10-14T14:54:53;1.70;;;0.90;;
14316;SDS011;7242;50.858;6.586;2022-10-14T14:57:55;1.13;;;0.80;;
14316;SDS011;7242;50.858;6.586;2022-10-14T15:00:58;0.80;;;0.80;;
14316;SDS011;7242;50.858;6.586;2022-10-14T15:04:03;1.10;;;0.87;;
14316;SDS011;7242;50.858;6.586;2022-10-14T15:07:13;2.37;;;0.90;;
14316;SDS011;7242;50.858;6.586;2022-10-14T15:10:26;1.27;;;0.80;;
14316;SDS011;7242;50.858;6.586;2022-10-14T15:13:32;0.60;;;0.60;;
14316;SDS011;7242;50.858;6.586;2022-10-14T15:16:48;1.40;;;0.80;;
14316;SDS011;7242;50.858;6.586;2022-10-14T15:19:54;1.30;;;0.73;;
14316;SDS011;7242;50.858;6.586;2022-10-14T15:22:57;0.90;;;0.70;;
14316;SDS011;7242;50.858;6.586;2022-10-14T15:26:02;0.83;;;0.77;;
14316;SDS011;7242;50.858;6.586;2022-10-14T15:29:04;0.80;;;0.80;;
14316;SDS011;7242;50.858;6.586;2022-10-14T15:32:14;1.40;;;0.93;;
14316;SDS011;7242;50.858;6.586;2022-10-14T15:35:17;1.10;;;1.00;;
14316;SDS011;7242;50.858;6.586;2022-10-14T15:38:20;1.77;;;1.00;;
14316;SDS011;7242;50.858;6.586;2022-10-14T15:41:21;0.87;;;0.87;;
14316;SDS011;7242;50.858;6.586;2022-10-14T15:44:22;1.00;;;0.90;;
14316;SDS011;7242;50.858;6.586;2022-10-14T15:47:23;1.93;;;0.80;;
14316;SDS011;7242;50.858;6.586;2022-10-14T15:50:26;1.17;;;0.83;;
14316;SDS011;7242;50.858;6.586;2022-10-14T15:53:27;1.17;;;1.00;;
14316;SDS011;7242;50.858;6.586;2022-10-14T15:56:28;2.17;;;1.00;;
14316;SDS011;7242;50.858;6.586;2022-10-14T15:59:29;1.07;;;0.90;;
14316;SDS011;7242;50.858;6.586;2022-10-14T16:02:32;1.20;;;1.00;;
14316;SDS011;7242;50.858;6.586;2022-10-14T16:05:34;1.23;;;0.97;;
14316;SDS011;7242;50.858;6.586;2022-10-14T16:08:39;1.00;;;0.90;;
14316;SDS011;7242;50.858;6.586;2022-10-14T16:11:42;1.53;;;1.27;;
14316;SDS011;7242;50.858;6.586;2022-10-14T16:14:44;1.17;;;1.00;;
14316;SDS011;7242;50.858;6.586;2022-10-14T16:17:45;1.30;;;1.20;;
14316;SDS011;7242;50.858;6.586;2022-10-14T16:20:46;1.43;;;1.33;;
14316;SDS011;7242;50.858;6.586;2022-10-14T16:23:46;1.80;;;1.63;;
14316;SDS011;7242;50.858;6.586;2022-10-14T16:26:47;4.17;;;2.43;;
14316;SDS011;7242;50.858;6.586;2022-10-14T16:29:49;5.57;;;2.43;;
14316;SDS011;7242;50.858;6.586;2022-10-14T16:32:50;2.77;;;1.90;;
14316;SDS011;7242;50.858;6.586;2022-10-14T16:35:52;3.00;;;1.97;;
14316;SDS011;7242;50.858;6.586;2022-10-14T16:38:54;1.60;;;1.40;;
14316;SDS011;7242;50.858;6.586;2022-10-14T16:41:55;2.53;;;1.60;;
14316;SDS011;7242;50.858;6.586;2022-10-14T16:44:57;2.07;;;1.77;;
14316;SDS011;7242;50.858;6.586;2022-10-14T16:47:58;1.83;;;1.63;;
14316;SDS011;7242;50.858;6.586;2022-10-14T16:51:00;2.40;;;1.60;;
14316;SDS011;7242;50.858;6.586;2022-10-14T16:54:02;2.43;;;1.57;;
14316;SDS011;7242;50.858;6.586;2022-10-14T16:57:03;2.63;;;1.80;;
14316;SDS011;7242;50.858;6.586;2022-10-14T17:00:05;1.70;;;1.60;;
14316;SDS011;7242;50.858;6.586;2022-10-14T17:03:07;1.60;;;1.50;;
14316;SDS011;7242;50.858;6.586;2022-10-14T17:06:08;1.97;;;1.43;;
14316;SDS011;7242;50.858;6.586;2022-10-14T17:09:09;1.80;;;1.70;;
14316;SDS011;7242;50.858;6.586;2022-10-14T17:12:09;2.80;;;1.73;;
14316;SDS011;7242;50.858;6.586;2022-10-14T17:15:10;1.50;;;1.40;;
14316;SDS011;7242;50.858;6.586;2022-10-14T17:18:12;2.20;;;1.90;;
14316;SDS011;7242;50.858;6.586;2022-10-14T17:21:14;1.47;;;1.37;;
14316;SDS011;7242;50.858;6.586;2022-10-14T17:24:15;2.40;;;1.83;;
14316;SDS011;7242;50.858;6.586;2022-10-14T17:27:16;1.60;;;1.50;;
14316;SDS011;7242;50.858;6.586;2022-10-14T17:30:20;1.53;;;1.43;;
14316;SDS011;7242;50.858;6.586;2022-10-14T17:33:21;1.90;;;1.70;;
14316;SDS011;7242;50.858;6.586;2022-10-14T17:36:24;2.07;;;1.80;;
14316;SDS011;7242;50.858;6.586;2022-10-14T17:39:27;1.93;;;1.73;;
14316;SDS011;7242;50.858;6.586;2022-10-14T17:42:29;28.77;;;23.50;;
14316;SDS011;7242;50.858;6.586;2022-10-14T17:45:31;34.50;;;30.70;;
14316;SDS011;7242;50.858;6.586;2022-10-14T17:48:32;8.17;;;7.27;;
14316;SDS011;7242;50.858;6.586;2022-10-14T17:51:35;3.30;;;3.00;;
14316;SDS011;7242;50.858;6.586;2022-10-14T17:54:37;2.60;;;2.40;;
14316;SDS011;7242;50.858;6.586;2022-10-14T17:57:38;2.70;;;2.50;;
14316;SDS011;7242;50.858;6.586;2022-10-14T18:00:39;2.53;;;2.33;;
14316;SDS011;7242;50.858;6.586;2022-10-14T18:03:41;2.30;;;2.10;;
14316;SDS011;7242;50.858;6.586;2022-10-14T18:06:43;3.37;;;2.87;;
14316;SDS011;7242;50.858;6.586;2022-10-14T18:09:45;7.17;;;4.03;;
14316;SDS011;7242;50.858;6.586;2022-10-14T18:12:47;3.87;;;3.07;;
14316;SDS011;7242;50.858;6.586;2022-10-14T18:15:48;2.80;;;2.60;;
14316;SDS011;7242;50.858;6.586;2022-10-14T18:18:49;3.03;;;2.70;;
14316;SDS011;7242;50.858;6.586;2022-10-14T18:21:52;3.10;;;2.80;;
14316;SDS011;7242;50.858;6.586;2022-10-14T18:24:53;2.80;;;2.60;;
14316;SDS011;7242;50.858;6.586;2022-10-14T18:27:55;2.87;;;2.50;;
14316;SDS011;7242;50.858;6.586;2022-10-14T18:30:56;2.73;;;2.53;;
14316;SDS011;7242;50.858;6.586;2022-10-14T18:34:01;3.10;;;2.80;;
14316;SDS011;7242;50.858;6.586;2022-10-14T18:37:02;2.67;;;2.47;;
14316;SDS011;7242;50.858;6.586;2022-10-14T18:40:04;3.00;;;2.80;;
14316;SDS011;7242;50.858;6.586;2022-10-14T18:43:05;5.07;;;3.40;;
14316;SDS011;7242;50.858;6.586;2022-10-14T18:49:38;4.60;;;4.20;;
14316;SDS011;7242;50.858;6.586;2022-10-14T18:52:39;4.13;;;3.50;;
14316;SDS011;7242;50.858;6.586;2022-10-14T18:55:40;4.00;;;3.30;;
14316;SDS011;7242;50.858;6.586;2022-10-14T18:58:44;3.63;;;3.27;;
14316;SDS011;7242;50.858;6.586;2022-10-14T19:01:47;3.83;;;3.40;;
14316;SDS011;7242;50.858;6.586;2022-10-14T19:04:51;4.03;;;3.60;;
14316;SDS011;7242;50.858;6.586;2022-10-14T19:07:55;3.50;;;3.20;;
14316;SDS011;7242;50.858;6.586;2022-10-14T19:11:03;3.70;;;3.40;;
14316;SDS011;7242;50.858;6.586;2022-10-14T19:14:05;4.07;;;3.63;;
14316;SDS011;7242;50.858;6.586;2022-10-14T19:17:06;4.20;;;3.80;;
14316;SDS011;7242;50.858;6.586;2022-10-14T19:20:07;4.20;;;3.60;;
14316;SDS011;7242;50.858;6.586;2022-10-14T19:23:09;3.73;;;3.40;;
14316;SDS011;7242;50.858;6.586;2022-10-14T19:26:11;3.90;;;3.57;;
14316;SDS011;7242;50.858;6.586;2022-10-14T19:29:14;3.83;;;3.53;;
14316;SDS011;7242;50.858;6.586;2022-10-14T19:32:15;3.90;;;3.60;;
14316;SDS011;7242;50.858;6.586;2022-10-14T19:35:17;3.40;;;3.10;;
14316;SDS011;7242;50.858;6.586;2022-10-14T19:38:20;4.20;;;3.80;;
14316;SDS011;7242;50.858;6.586;2022-10-14T19:41:29;3.83;;;3.53;;
14316;SDS011;7242;50.858;6.586;2022-10-14T19:44:32;4.40;;;4.00;;
14316;SDS011;7242;50.858;6.586;2022-10-14T19:47:32;4.20;;;3.80;;
14316;SDS011;7242;50.858;6.586;2022-10-14T19:50:34;3.70;;;3.40;;
14316;SDS011;7242;50.858;6.586;2022-10-14T19:53:36;5.00;;;3.50;;
14316;SDS011;7242;50.858;6.586;2022-10-14T19:56:37;5.50;;;4.10;;
14316;SDS011;7242;50.858;6.586;2022-10-14T19:59:39;5.00;;;4.07;;
14316;SDS011;7242;50.858;6.586;2022-10-14T20:02:40;4.53;;;3.97;;
14316;SDS011;7242;50.858;6.586;2022-10-14T20:05:41;4.17;;;3.77;;
14316;SDS011;7242;50.858;6.586;2022-10-14T20:08:42;4.10;;;3.70;;
14316;SDS011;7242;50.858;6.586;2022-10-14T20:11:45;3.73;;;3.43;;
14316;SDS011;7242;50.858;6.586;2022-10-14T20:14:46;3.57;;;3.27;;
14316;SDS011;7242;50.858;6.586;2022-10-14T20:17:47;3.40;;;3.10;;
14316;SDS011;7242;50.858;6.586;2022-10-14T20:20:48;4.00;;;3.60;;
14316;SDS011;7242;50.858;6.586;2022-10-14T20:23:50;4.20;;;3.90;;
14316;SDS011;7242;50.858;6.586;2022-10-14T20:26:51;3.50;;;3.27;;